sensor_id;sensor_type;location;lat;lon;timestamp;pressure;altitude;pressure_sealevel;temperature;humidity
61697;BME280;47610;52.252;20.922;2023-04-02T00:00:16;99271.80;;;6.92;100.00
61697;BME280;47610;52.252;20.922;2023-04-02T00:05:43;99269.88;;;6.95;100.00
61697;BME280;47610;52.252;20.922;2023-04-02T00:10:49;99275.88;;;7.02;100.00
61697;BME280;47610;52.252;20.922;2023-04-02T00:15:56;99283.98;;;7.03;100.00
61697;BME280;47610;52.252;20.922;2023-04-02T00:21:09;99277.31;;;7.01;100.00
61697;BME280;47610;52.252;20.922;2023-04-02T00:26:27;99286.89;;;7.03;100.00
61697;BME280;47610;52.252;20.922;2023-04-02T00:31:32;99289.56;;;7.03;100.00
61697;BME280;47610;52.252;20.922;2023-04-02T00:36:35;99294.86;;;7.04;100.00
61697;BME280;47610;52.252;20.922;2023-04-02T00:41:39;99295.30;;;7.03;100.00
61697;BME280;47610;52.252;20.922;2023-04-02T00:46:43;99300.89;;;7.03;100.00
61697;BME280;47610;52.252;20.922;2023-04-02T00:51:50;99301.11;;;7.01;100.00
61697;BME280;47610;52.252;20.922;2023-04-02T00:56:56;99304.06;;;6.98;100.00
61697;BME280;47610;52.252;20.922;2023-04-02T01:07:27;99306.35;;;6.84;100.00
61697;BME280;47610;52.252;20.922;2023-04-02T01:12:41;99309.98;;;6.73;100.00
61697;BME280;47610;52.252;20.922;2023-04-02T01:18:01;99314.91;;;6.65;100.00
61697;BME280;47610;52.252;20.922;2023-04-02T01:23:13;99320.13;;;6.61;100.00
61697;BME280;47610;52.252;20.922;2023-04-02T01:28:21;99320.08;;;6.61;100.00
61697;BME280;47610;52.252;20.922;2023-04-02T01:33:31;99324.73;;;6.58;100.00
61697;BME280;47610;52.252;20.922;2023-04-02T01:38:42;99332.11;;;6.54;100.00
61697;BME280;47610;52.252;20.922;2023-04-02T01:43:52;99335.12;;;6.46;100.00
61697;BME280;47610;52.252;20.922;2023-04-02T01:48:58;99342.35;;;6.42;100.00
61697;BME280;47610;52.252;20.922;2023-04-02T01:54:05;99345.73;;;6.35;100.00
61697;BME280;47610;52.252;20.922;2023-04-02T01:59:10;99348.57;;;6.30;100.00
61697;BME280;47610;52.252;20.922;2023-04-02T02:04:12;99350.48;;;6.30;100.00
61697;BME280;47610;52.252;20.922;2023-04-02T02:09:20;99359.34;;;6.31;100.00
61697;BME280;47610;52.252;20.922;2023-04-02T02:14:26;99362.45;;;6.28;100.00
61697;BME280;47610;52.252;20.922;2023-04-02T02:19:33;99371.64;;;6.27;100.00
61697;BME280;47610;52.252;20.922;2023-04-02T02:24:38;99371.58;;;6.24;100.00
61697;BME280;47610;52.252;20.922;2023-04-02T02:29:43;99375.63;;;6.26;100.00
61697;BME280;47610;52.252;20.922;2023-04-02T02:34:51;99379.23;;;6.26;100.00
61697;BME280;47610;52.252;20.922;2023-04-02T02:39:58;99386.61;;;6.29;100.00
61697;BME280;47610;52.252;20.922;2023-04-02T02:45:05;99387.77;;;6.30;100.00
61697;BME280;47610;52.252;20.922;2023-04-02T02:50:18;99389.17;;;6.23;100.00
61697;BME280;47610;52.252;20.922;2023-04-02T02:55:23;99394.30;;;6.16;100.00
61697;BME280;47610;52.252;20.922;2023-04-02T03:00:29;99402.98;;;6.11;100.00
61697;BME280;47610;52.252;20.922;2023-04-02T03:05:34;99407.69;;;6.09;100.00
61697;BME280;47610;52.252;20.922;2023-04-02T03:10:44;99407.77;;;6.06;100.00
61697;BME280;47610;52.252;20.922;2023-04-02T03:15:55;99415.64;;;5.99;100.00
61697;BME280;47610;52.252;20.922;2023-04-02T03:21:04;99420.37;;;5.95;100.00
61697;BME280;47610;52.252;20.922;2023-04-02T03:26:13;99431.95;;;5.95;100.00
61697;BME280;47610;52.252;20.922;2023-04-02T03:31:24;99435.11;;;5.95;100.00
61697;BME280;47610;52.252;20.922;2023-04-02T03:36:32;99444.73;;;5.95;100.00
61697;BME280;47610;52.252;20.922;2023-04-02T03:41:40;99453.21;;;5.96;100.00
61697;BME280;47610;52.252;20.922;2023-04-02T03:46:48;99457.24;;;5.97;100.00
61697;BME280;47610;52.252;20.922;2023-04-02T03:51:58;99470.04;;;5.96;100.00
61697;BME280;47610;52.252;20.922;2023-04-02T03:57:03;99478.18;;;5.91;100.00
61697;BME280;47610;52.252;20.922;2023-04-02T04:02:17;99483.61;;;5.85;100.00
61697;BME280;47610;52.252;20.922;2023-04-02T04:07:31;99484.63;;;5.79;100.00
61697;BME280;47610;52.252;20.922;2023-04-02T04:12:38;99495.20;;;5.74;100.00
61697;BME280;47610;52.252;20.922;2023-04-02T04:17:47;99500.71;;;5.66;100.00
61697;BME280;47610;52.252;20.922;2023-04-02T04:22:55;99512.91;;;5.57;100.00
61697;BME280;47610;52.252;20.922;2023-04-02T04:28:18;99517.77;;;5.57;100.00
61697;BME280;47610;52.252;20.922;2023-04-02T04:33:26;99522.25;;;5.58;100.00
61697;BME280;47610;52.252;20.922;2023-04-02T04:38:33;99528.83;;;5.62;100.00
61697;BME280;47610;52.252;20.922;2023-04-02T04:43:43;99530.36;;;5.63;100.00
61697;BME280;47610;52.252;20.922;2023-04-02T04:48:52;99539.98;;;5.64;100.00
61697;BME280;47610;52.252;20.922;2023-04-02T04:53:59;99549.49;;;5.66;100.00
61697;BME280;47610;52.252;20.922;2023-04-02T04:59:04;99562.02;;;5.68;100.00
61697;BME280;47610;52.252;20.922;2023-04-02T05:04:13;99564.52;;;5.66;100.00
61697;BME280;47610;52.252;20.922;2023-04-02T05:09:23;99569.20;;;5.64;100.00
61697;BME280;47610;52.252;20.922;2023-04-02T05:14:34;99580.44;;;5.64;100.00
61697;BME280;47610;52.252;20.922;2023-04-02T05:19:43;99587.37;;;5.62;100.00
61697;BME280;47610;52.252;20.922;2023-04-02T05:24:52;99595.77;;;5.60;100.00
61697;BME280;47610;52.252;20.922;2023-04-02T05:30:02;99600.91;;;5.57;100.00
61697;BME280;47610;52.252;20.922;2023-04-02T05:35:16;99606.55;;;5.51;100.00
61697;BME280;47610;52.252;20.922;2023-04-02T05:40:26;99621.59;;;5.46;100.00
61697;BME280;47610;52.252;20.922;2023-04-02T05:45:34;99623.90;;;5.49;100.00
61697;BME280;47610;52.252;20.922;2023-04-02T05:50:42;99624.06;;;5.54;100.00
61697;BME280;47610;52.252;20.922;2023-04-02T05:55:56;99630.00;;;5.60;100.00
61697;BME280;47610;52.252;20.922;2023-04-02T06:01:24;99641.07;;;5.58;100.00
61697;BME280;47610;52.252;20.922;2023-04-02T06:06:44;99638.23;;;5.53;100.00
61697;BME280;47610;52.252;20.922;2023-04-02T06:11:54;99647.73;;;5.52;100.00
61697;BME280;47610;52.252;20.922;2023-04-02T06:16:59;99661.34;;;5.47;100.00
61697;BME280;47610;52.252;20.922;2023-04-02T06:22:14;99675.61;;;5.43;100.00
61697;BME280;47610;52.252;20.922;2023-04-02T06:27:19;99681.42;;;5.40;100.00
61697;BME280;47610;52.252;20.922;2023-04-02T06:32:24;99687.67;;;5.37;100.00
61697;BME280;47610;52.252;20.922;2023-04-02T06:37:32;99696.99;;;5.36;100.00
61697;BME280;47610;52.252;20.922;2023-04-02T06:42:39;99700.45;;;5.32;100.00
61697;BME280;47610;52.252;20.922;2023-04-02T06:47:47;99700.82;;;5.30;100.00
61697;BME280;47610;52.252;20.922;2023-04-02T06:52:54;99714.67;;;5.20;100.00
61697;BME280;47610;52.252;20.922;2023-04-02T06:57:58;99722.77;;;5.13;100.00
61697;BME280;47610;52.252;20.922;2023-04-02T07:03:03;99729.51;;;5.09;100.00
61697;BME280;47610;52.252;20.922;2023-04-02T07:08:08;99728.11;;;5.03;100.00
61697;BME280;47610;52.252;20.922;2023-04-02T07:13:15;99734.73;;;4.99;100.00
61697;BME280;47610;52.252;20.922;2023-04-02T07:18:25;99736.45;;;4.93;100.00
61697;BME280;47610;52.252;20.922;2023-04-02T07:23:29;99742.02;;;4.93;100.00
61697;BME280;47610;52.252;20.922;2023-04-02T07:28:32;99748.16;;;5.00;100.00
61697;BME280;47610;52.252;20.922;2023-04-02T07:33:36;99759.30;;;4.97;100.00
61697;BME280;47610;52.252;20.922;2023-04-02T07:38:39;99770.73;;;4.86;100.00
61697;BME280;47610;52.252;20.922;2023-04-02T07:43:43;99777.02;;;4.77;100.00
61697;BME280;47610;52.252;20.922;2023-04-02T07:48:48;99782.91;;;4.75;100.00
61697;BME280;47610;52.252;20.922;2023-04-02T07:53:52;99789.01;;;4.82;100.00
61697;BME280;47610;52.252;20.922;2023-04-02T07:58:55;99788.95;;;4.94;100.00
61697;BME280;47610;52.252;20.922;2023-04-02T08:03:59;99792.10;;;4.97;100.00
61697;BME280;47610;52.252;20.922;2023-04-02T08:09:02;99804.17;;;4.94;100.00
61697;BME280;47610;52.252;20.922;2023-04-02T08:14:06;99812.79;;;4.94;100.00
61697;BME280;47610;52.252;20.922;2023-04-02T08:19:09;99822.33;;;4.98;100.00
61697;BME280;47610;52.252;20.922;2023-04-02T08:24:12;99831.27;;;4.98;100.00
61697;BME280;47610;52.252;20.922;2023-04-02T08:29:16;99827.05;;;4.97;100.00
61697;BME280;47610;52.252;20.922;2023-04-02T08:34:19;99824.47;;;4.98;100.00
61697;BME280;47610;52.252;20.922;2023-04-02T08:39:24;99845.92;;;5.04;100.00
61697;BME280;47610;52.252;20.922;2023-04-02T08:44:40;99865.62;;;5.08;100.00
61697;BME280;47610;52.252;20.922;2023-04-02T08:49:51;99871.61;;;5.08;100.00
61697;BME280;47610;52.252;20.922;2023-04-02T08:54:58;99875.78;;;5.05;100.00
61697;BME280;47610;52.252;20.922;2023-04-02T09:00:15;99877.83;;;5.07;100.00
61697;BME280;47610;52.252;20.922;2023-04-02T09:05:30;99883.41;;;5.08;100.00
61697;BME280;47610;52.252;20.922;2023-04-02T09:10:40;99889.98;;;5.10;100.00
61697;BME280;47610;52.252;20.922;2023-04-02T09:15:45;99894.91;;;5.19;100.00
61697;BME280;47610;52.252;20.922;2023-04-02T09:20:50;99898.05;;;5.30;100.00
61697;BME280;47610;52.252;20.922;2023-04-02T09:25:54;99903.10;;;5.43;100.00
61697;BME280;47610;52.252;20.922;2023-04-02T09:31:01;99904.73;;;5.58;100.00
61697;BME280;47610;52.252;20.922;2023-04-02T09:36:11;99907.98;;;5.68;100.00
61697;BME280;47610;52.252;20.922;2023-04-02T09:41:21;99908.75;;;5.77;100.00
61697;BME280;47610;52.252;20.922;2023-04-02T09:46:29;99911.09;;;5.81;100.00
61697;BME280;47610;52.252;20.922;2023-04-02T09:51:33;99913.70;;;5.85;100.00
61697;BME280;47610;52.252;20.922;2023-04-02T09:56:38;99918.86;;;5.87;100.00
61697;BME280;47610;52.252;20.922;2023-04-02T10:01:44;99929.61;;;5.86;100.00
61697;BME280;47610;52.252;20.922;2023-04-02T10:06:51;99937.29;;;5.80;100.00
61697;BME280;47610;52.252;20.922;2023-04-02T10:11:56;99945.23;;;5.77;100.00
61697;BME280;47610;52.252;20.922;2023-04-02T10:17:06;99956.44;;;5.73;100.00
61697;BME280;47610;52.252;20.922;2023-04-02T10:22:17;99959.61;;;5.65;100.00
61697;BME280;47610;52.252;20.922;2023-04-02T10:27:26;99965.48;;;5.59;100.00
61697;BME280;47610;52.252;20.922;2023-04-02T10:32:37;99966.79;;;5.58;100.00
61697;BME280;47610;52.252;20.922;2023-04-02T10:37:59;99976.14;;;5.63;100.00
61697;BME280;47610;52.252;20.922;2023-04-02T10:43:35;99980.64;;;5.61;100.00
61697;BME280;47610;52.252;20.922;2023-04-02T10:48:48;99990.73;;;5.63;100.00
61697;BME280;47610;52.252;20.922;2023-04-02T10:53:59;100001.10;;;5.62;100.00
61697;BME280;47610;52.252;20.922;2023-04-02T10:59:11;100009.10;;;5.62;100.00
61697;BME280;47610;52.252;20.922;2023-04-02T11:04:21;100015.27;;;5.61;100.00
61697;BME280;47610;52.252;20.922;2023-04-02T11:09:30;100034.30;;;5.51;100.00
61697;BME280;47610;52.252;20.922;2023-04-02T11:14:35;100038.54;;;5.35;100.00
61697;BME280;47610;52.252;20.922;2023-04-02T11:19:44;100038.83;;;5.23;100.00
61697;BME280;47610;52.252;20.922;2023-04-02T11:24:53;100039.70;;;5.19;100.00
61697;BME280;47610;52.252;20.922;2023-04-02T11:30:06;100052.11;;;5.11;100.00
61697;BME280;47610;52.252;20.922;2023-04-02T11:35:40;100066.80;;;5.02;100.00
61697;BME280;47610;52.252;20.922;2023-04-02T11:40:51;100075.34;;;5.03;100.00
61697;BME280;47610;52.252;20.922;2023-04-02T11:45:57;100079.33;;;5.17;100.00
61697;BME280;47610;52.252;20.922;2023-04-02T11:51:13;100082.07;;;5.44;100.00
61697;BME280;47610;52.252;20.922;2023-04-02T11:57:18;100097.31;;;5.59;100.00
61697;BME280;47610;52.252;20.922;2023-04-02T12:02:29;100099.96;;;5.54;100.00
61697;BME280;47610;52.252;20.922;2023-04-02T12:08:00;100102.27;;;5.61;100.00
61697;BME280;47610;52.252;20.922;2023-04-02T12:13:18;100110.11;;;5.71;100.00
61697;BME280;47610;52.252;20.922;2023-04-02T12:18:24;100113.96;;;5.69;100.00
61697;BME280;47610;52.252;20.922;2023-04-02T12:23:30;100123.09;;;5.69;100.00
61697;BME280;47610;52.252;20.922;2023-04-02T12:28:35;100121.55;;;5.62;100.00
61697;BME280;47610;52.252;20.922;2023-04-02T12:33:39;100124.29;;;5.52;100.00
61697;BME280;47610;52.252;20.922;2023-04-02T12:44:00;100131.42;;;5.43;100.00
61697;BME280;47610;52.252;20.922;2023-04-02T12:49:06;100136.77;;;5.40;100.00
61697;BME280;47610;52.252;20.922;2023-04-02T12:54:13;100139.46;;;5.34;100.00
61697;BME280;47610;52.252;20.922;2023-04-02T12:59:32;100150.32;;;5.28;100.00
61697;BME280;47610;52.252;20.922;2023-04-02T13:04:47;100166.27;;;5.19;100.00
61697;BME280;47610;52.252;20.922;2023-04-02T13:09:50;100172.08;;;5.15;100.00
61697;BME280;47610;52.252;20.922;2023-04-02T13:14:56;100176.11;;;5.15;100.00
61697;BME280;47610;52.252;20.922;2023-04-02T13:20:30;100178.10;;;5.19;100.00
61697;BME280;47610;52.252;20.922;2023-04-02T13:25:37;100176.83;;;5.40;100.00
61697;BME280;47610;52.252;20.922;2023-04-02T13:30:41;100187.04;;;5.59;100.00
61697;BME280;47610;52.252;20.922;2023-04-02T13:35:45;100191.10;;;5.51;100.00
61697;BME280;47610;52.252;20.922;2023-04-02T13:40:49;100192.38;;;5.49;100.00
61697;BME280;47610;52.252;20.922;2023-04-02T13:45:54;100202.38;;;5.46;100.00
61697;BME280;47610;52.252;20.922;2023-04-02T13:51:02;100203.78;;;5.45;100.00
61697;BME280;47610;52.252;20.922;2023-04-02T13:56:08;100205.25;;;5.44;100.00
61697;BME280;47610;52.252;20.922;2023-04-02T14:01:12;100212.93;;;5.31;100.00
61697;BME280;47610;52.252;20.922;2023-04-02T14:06:23;100220.20;;;5.18;100.00
61697;BME280;47610;52.252;20.922;2023-04-02T14:11:42;100225.69;;;5.10;100.00
61697;BME280;47610;52.252;20.922;2023-04-02T14:17:01;100227.08;;;5.06;100.00
61697;BME280;47610;52.252;20.922;2023-04-02T14:22:16;100237.98;;;5.01;100.00
61697;BME280;47610;52.252;20.922;2023-04-02T14:27:34;100250.72;;;4.96;100.00
61697;BME280;47610;52.252;20.922;2023-04-02T14:32:48;100258.30;;;4.93;100.00
61697;BME280;47610;52.252;20.922;2023-04-02T14:38:08;100263.77;;;4.89;100.00
61697;BME280;47610;52.252;20.922;2023-04-02T14:43:18;100270.20;;;4.85;100.00
61697;BME280;47610;52.252;20.922;2023-04-02T14:48:36;100272.45;;;4.82;100.00
61697;BME280;47610;52.252;20.922;2023-04-02T14:53:51;100276.48;;;4.71;100.00
61697;BME280;47610;52.252;20.922;2023-04-02T14:59:10;100286.70;;;4.52;100.00
61697;BME280;47610;52.252;20.922;2023-04-02T15:04:24;100296.88;;;4.38;100.00
61697;BME280;47610;52.252;20.922;2023-04-02T15:09:34;100301.90;;;4.24;100.00
61697;BME280;47610;52.252;20.922;2023-04-02T15:14:43;100308.05;;;4.10;100.00
61697;BME280;47610;52.252;20.922;2023-04-02T15:19:47;100313.63;;;3.99;100.00
61697;BME280;47610;52.252;20.922;2023-04-02T15:25:00;100328.83;;;3.97;100.00
61697;BME280;47610;52.252;20.922;2023-04-02T15:30:13;100338.25;;;3.89;100.00
61697;BME280;47610;52.252;20.922;2023-04-02T15:35:26;100337.12;;;3.75;100.00
61697;BME280;47610;52.252;20.922;2023-04-02T15:40:48;100341.58;;;3.64;100.00
61697;BME280;47610;52.252;20.922;2023-04-02T15:46:13;100350.77;;;3.58;100.00
61697;BME280;47610;52.252;20.922;2023-04-02T15:51:27;100358.29;;;3.53;100.00
61697;BME280;47610;52.252;20.922;2023-04-02T15:56:44;100368.52;;;3.48;100.00
61697;BME280;47610;52.252;20.922;2023-04-02T16:01:56;100370.48;;;3.39;100.00
61697;BME280;47610;52.252;20.922;2023-04-02T16:07:21;100383.96;;;3.36;100.00
61697;BME280;47610;52.252;20.922;2023-04-02T16:12:28;100392.11;;;3.33;100.00
61697;BME280;47610;52.252;20.922;2023-04-02T16:17:38;100400.55;;;3.27;100.00
61697;BME280;47610;52.252;20.922;2023-04-02T16:22:45;100405.02;;;3.25;100.00
61697;BME280;47610;52.252;20.922;2023-04-02T16:27:53;100410.39;;;3.19;100.00
61697;BME280;47610;52.252;20.922;2023-04-02T16:33:06;100419.56;;;3.15;100.00
61697;BME280;47610;52.252;20.922;2023-04-02T16:38:23;100425.88;;;3.11;100.00
61697;BME280;47610;52.252;20.922;2023-04-02T16:43:40;100433.11;;;3.12;100.00
61697;BME280;47610;52.252;20.922;2023-04-02T16:48:53;100440.69;;;3.08;100.00
61697;BME280;47610;52.252;20.922;2023-04-02T16:54:07;100451.35;;;3.12;100.00
61697;BME280;47610;52.252;20.922;2023-04-02T16:59:18;100456.63;;;3.17;100.00
61697;BME280;47610;52.252;20.922;2023-04-02T17:04:43;100464.21;;;3.14;100.00
61697;BME280;47610;52.252;20.922;2023-04-02T17:09:50;100467.63;;;3.14;100.00
61697;BME280;47610;52.252;20.922;2023-04-02T17:14:57;100470.23;;;3.16;100.00
61697;BME280;47610;52.252;20.922;2023-04-02T17:20:05;100474.67;;;3.20;100.00
61697;BME280;47610;52.252;20.922;2023-04-02T17:25:20;100488.38;;;3.23;100.00
61697;BME280;47610;52.252;20.922;2023-04-02T17:30:36;100486.22;;;3.28;100.00
61697;BME280;47610;52.252;20.922;2023-04-02T17:35:50;100487.79;;;3.31;100.00
61697;BME280;47610;52.252;20.922;2023-04-02T17:41:04;100495.23;;;3.36;100.00
61697;BME280;47610;52.252;20.922;2023-04-02T17:46:22;100507.25;;;3.39;100.00
61697;BME280;47610;52.252;20.922;2023-04-02T17:51:36;100515.16;;;3.43;100.00
61697;BME280;47610;52.252;20.922;2023-04-02T17:56:55;100521.08;;;3.46;100.00
61697;BME280;47610;52.252;20.922;2023-04-02T18:02:13;100526.27;;;3.48;100.00
61697;BME280;47610;52.252;20.922;2023-04-02T18:07:33;100525.93;;;3.50;100.00
61697;BME280;47610;52.252;20.922;2023-04-02T18:12:52;100532.98;;;3.54;100.00
61697;BME280;47610;52.252;20.922;2023-04-02T18:18:04;100537.66;;;3.56;100.00
61697;BME280;47610;52.252;20.922;2023-04-02T18:23:22;100540.84;;;3.59;100.00
61697;BME280;47610;52.252;20.922;2023-04-02T18:28:46;100546.13;;;3.61;100.00
61697;BME280;47610;52.252;20.922;2023-04-02T18:34:04;100549.08;;;3.63;100.00
61697;BME280;47610;52.252;20.922;2023-04-02T18:39:17;100555.75;;;3.66;100.00
61697;BME280;47610;52.252;20.922;2023-04-02T18:44:49;100560.19;;;3.70;100.00
61697;BME280;47610;52.252;20.922;2023-04-02T18:50:12;100569.87;;;3.78;100.00
61697;BME280;47610;52.252;20.922;2023-04-02T18:55:21;100582.45;;;3.84;100.00
61697;BME280;47610;52.252;20.922;2023-04-02T19:00:30;100584.73;;;3.89;100.00
61697;BME280;47610;52.252;20.922;2023-04-02T19:05:40;100585.52;;;3.94;100.00
61697;BME280;47610;52.252;20.922;2023-04-02T19:10:48;100596.46;;;3.98;100.00
61697;BME280;47610;52.252;20.922;2023-04-02T19:16:03;100591.73;;;4.00;100.00
61697;BME280;47610;52.252;20.922;2023-04-02T19:21:24;100602.39;;;4.04;100.00
61697;BME280;47610;52.252;20.922;2023-04-02T19:26:37;100606.04;;;4.06;100.00
61697;BME280;47610;52.252;20.922;2023-04-02T19:31:55;100602.17;;;4.08;100.00
61697;BME280;47610;52.252;20.922;2023-04-02T19:37:07;100604.40;;;4.08;100.00
61697;BME280;47610;52.252;20.922;2023-04-02T19:42:27;100607.02;;;4.06;100.00
61697;BME280;47610;52.252;20.922;2023-04-02T19:47:35;100609.95;;;4.02;100.00
61697;BME280;47610;52.252;20.922;2023-04-02T19:52:38;100610.31;;;4.00;100.00
61697;BME280;47610;52.252;20.922;2023-04-02T19:57:41;100611.68;;;3.97;100.00
61697;BME280;47610;52.252;20.922;2023-04-02T20:02:45;100616.13;;;3.93;100.00
61697;BME280;47610;52.252;20.922;2023-04-02T20:07:48;100620.91;;;3.92;100.00
61697;BME280;47610;52.252;20.922;2023-04-02T20:12:51;100624.17;;;3.89;100.00
61697;BME280;47610;52.252;20.922;2023-04-02T20:17:55;100629.52;;;3.89;100.00
61697;BME280;47610;52.252;20.922;2023-04-02T20:22:58;100630.71;;;3.88;100.00
61697;BME280;47610;52.252;20.922;2023-04-02T20:28:01;100636.91;;;3.88;100.00
61697;BME280;47610;52.252;20.922;2023-04-02T20:33:04;100639.20;;;3.87;100.00
61697;BME280;47610;52.252;20.922;2023-04-02T20:38:08;100640.19;;;3.83;100.00
61697;BME280;47610;52.252;20.922;2023-04-02T20:43:12;100651.14;;;3.86;100.00
61697;BME280;47610;52.252;20.922;2023-04-02T20:48:16;100650.91;;;3.84;100.00
61697;BME280;47610;52.252;20.922;2023-04-02T20:53:19;100657.11;;;3.84;100.00
61697;BME280;47610;52.252;20.922;2023-04-02T20:58:22;100660.80;;;3.79;100.00
61697;BME280;47610;52.252;20.922;2023-04-02T21:03:25;100657.29;;;3.73;100.00
61697;BME280;47610;52.252;20.922;2023-04-02T21:08:29;100673.73;;;3.72;100.00
61697;BME280;47610;52.252;20.922;2023-04-02T21:13:34;100678.67;;;3.70;100.00
61697;BME280;47610;52.252;20.922;2023-04-02T21:18:39;100683.05;;;3.69;100.00
61697;BME280;47610;52.252;20.922;2023-04-02T21:23:43;100684.09;;;3.65;100.00
61697;BME280;47610;52.252;20.922;2023-04-02T21:28:47;100687.29;;;3.59;100.00
61697;BME280;47610;52.252;20.922;2023-04-02T21:33:52;100682.67;;;3.53;100.00
61697;BME280;47610;52.252;20.922;2023-04-02T21:38:57;100692.11;;;3.52;100.00
61697;BME280;47610;52.252;20.922;2023-04-02T21:44:02;100696.13;;;3.48;100.00
61697;BME280;47610;52.252;20.922;2023-04-02T21:49:06;100700.08;;;3.46;100.00
61697;BME280;47610;52.252;20.922;2023-04-02T21:54:11;100702.48;;;3.43;100.00
61697;BME280;47610;52.252;20.922;2023-04-02T21:59:17;100705.72;;;3.35;100.00
61697;BME280;47610;52.252;20.922;2023-04-02T22:04:23;100710.50;;;3.27;100.00
61697;BME280;47610;52.252;20.922;2023-04-02T22:09:28;100722.60;;;3.21;100.00
61697;BME280;47610;52.252;20.922;2023-04-02T22:14:34;100725.94;;;3.17;100.00
61697;BME280;47610;52.252;20.922;2023-04-02T22:19:37;100735.36;;;3.13;100.00
61697;BME280;47610;52.252;20.922;2023-04-02T22:24:40;100739.71;;;3.07;100.00
61697;BME280;47610;52.252;20.922;2023-04-02T22:29:45;100744.80;;;3.00;100.00
61697;BME280;47610;52.252;20.922;2023-04-02T22:34:48;100751.74;;;2.92;100.00
61697;BME280;47610;52.252;20.922;2023-04-02T22:39:52;100755.67;;;2.85;100.00
61697;BME280;47610;52.252;20.922;2023-04-02T22:44:55;100756.95;;;2.77;100.00
61697;BME280;47610;52.252;20.922;2023-04-02T22:49:58;100756.98;;;2.70;100.00
61697;BME280;47610;52.252;20.922;2023-04-02T22:55:04;100765.95;;;2.65;100.00
61697;BME280;47610;52.252;20.922;2023-04-02T23:00:18;100763.14;;;2.56;100.00
61697;BME280;47610;52.252;20.922;2023-04-02T23:05:21;100763.62;;;2.49;100.00
61697;BME280;47610;52.252;20.922;2023-04-02T23:10:24;100760.99;;;2.40;100.00
61697;BME280;47610;52.252;20.922;2023-04-02T23:15:28;100766.67;;;2.30;100.00
61697;BME280;47610;52.252;20.922;2023-04-02T23:20:31;100769.58;;;2.21;100.00
61697;BME280;47610;52.252;20.922;2023-04-02T23:25:34;100771.96;;;2.12;100.00
61697;BME280;47610;52.252;20.922;2023-04-02T23:30:37;100774.68;;;2.01;100.00
61697;BME280;47610;52.252;20.922;2023-04-02T23:35:42;100779.02;;;1.92;100.00
61697;BME280;47610;52.252;20.922;2023-04-02T23:40:45;100782.08;;;1.83;100.00
61697;BME280;47610;52.252;20.922;2023-04-02T23:45:50;100784.25;;;1.73;100.00
61697;BME280;47610;52.252;20.922;2023-04-02T23:50:53;100788.36;;;1.63;100.00
61697;BME280;47610;52.252;20.922;2023-04-02T23:55:58;100790.27;;;1.53;100.00
